Time;durP1;ratioP1;P1;durP2;ratioP2;P2;SDS_P1;SDS_P2;PMS_P1;PMS_P2;Temp;Humidity;BMP_temperature;BMP_pressure;BME280_temperature;BME280_humidity;BME280_pressure;Samples;Min_cycle;Max_cycle;Signal;HPM_P1;HPM_P2
2023/04/25 00:00:28;;;;;;;27.52;7.85;;;6.80;99.90;;;;;;5006257;28;20184;-74
2023/04/25 00:02:56;;;;;;;24.55;7.10;;;6.70;99.90;;;;;;5017268;28;20076;-74
2023/04/25 00:05:22;;;;;;;26.55;7.75;;;6.80;99.90;;;;;;5023903;28;20090;-73
2023/04/25 00:07:49;;;;;;;20.27;7.60;;;6.70;99.90;;;;;;5022501;28;20045;-73
2023/04/25 00:10:15;;;;;;;26.25;7.15;;;6.60;99.90;;;;;;5005983;28;20041;-74
2023/04/25 00:12:41;;;;;;;22.10;7.38;;;6.70;99.90;;;;;;5003388;28;20094;-73
2023/04/25 00:15:08;;;;;;;21.23;7.07;;;6.60;99.90;;;;;;4976571;28;20041;-74
2023/04/25 00:17:34;;;;;;;24.20;7.90;;;6.60;99.90;;;;;;5021583;28;20042;-74
2023/04/25 00:20:04;;;;;;;22.17;7.72;;;6.60;99.90;;;;;;5010626;28;20052;-73
2023/04/25 00:22:30;;;;;;;23.50;7.53;;;6.50;99.90;;;;;;5021384;28;20107;-74
2023/04/25 00:24:57;;;;;;;20.52;7.15;;;6.50;99.90;;;;;;5017926;28;20045;-74
2023/04/25 00:27:22;;;;;;;27.27;7.88;;;6.50;99.90;;;;;;4972920;28;20652;-73
2023/04/25 00:29:48;;;;;;;21.55;7.10;;;6.50;99.90;;;;;;5001152;28;20250;-73
2023/04/25 00:32:14;;;;;;;24.98;7.05;;;6.50;99.90;;;;;;5003887;28;20072;-73
2023/04/25 00:34:40;;;;;;;22.45;7.40;;;6.50;99.90;;;;;;5003645;28;20038;-74
2023/04/25 00:37:06;;;;;;;21.33;7.28;;;6.40;99.90;;;;;;5003255;28;20048;-74
2023/04/25 00:39:31;;;;;;;20.60;7.55;;;6.40;99.90;;;;;;4987115;28;20045;-73
2023/04/25 00:41:58;;;;;;;23.48;7.32;;;6.50;99.90;;;;;;5005747;28;20053;-73
2023/04/25 00:44:26;;;;;;;22.33;6.85;;;6.40;99.90;;;;;;5017816;28;20056;-73
2023/04/25 00:46:55;;;;;;;21.75;7.57;;;6.40;99.90;;;;;;4999859;28;20041;-73
2023/04/25 00:49:21;;;;;;;20.73;6.65;;;6.40;99.90;;;;;;5001073;28;20700;-73
2023/04/25 00:51:47;;;;;;;19.30;5.95;;;6.30;99.90;;;;;;5020230;28;20132;-72
2023/04/25 00:54:13;;;;;;;20.60;7.20;;;6.30;99.90;;;;;;4986167;28;20109;-74
2023/04/25 00:56:40;;;;;;;21.85;7.75;;;6.20;99.90;;;;;;5013776;28;20072;-73
2023/04/25 00:59:06;;;;;;;20.83;6.72;;;6.20;99.90;;;;;;5021285;28;20577;-74
2023/04/25 01:01:32;;;;;;;23.33;7.35;;;6.20;99.90;;;;;;5001933;28;20128;-73
2023/04/25 01:03:59;;;;;;;18.15;6.45;;;6.10;99.90;;;;;;5019538;28;20053;-73
2023/04/25 01:06:25;;;;;;;22.25;7.07;;;6.10;99.90;;;;;;5016007;28;20050;-74
2023/04/25 01:08:51;;;;;;;19.80;7.57;;;6.10;99.90;;;;;;5003716;28;20115;-74
2023/04/25 01:11:17;;;;;;;22.63;6.47;;;6.00;99.90;;;;;;4990614;28;20427;-73
2023/04/25 01:13:43;;;;;;;17.70;5.68;;;6.00;99.90;;;;;;5017313;28;20459;-73
2023/04/25 01:16:09;;;;;;;16.00;6.18;;;6.00;99.90;;;;;;5015309;28;20041;-73
2023/04/25 01:18:36;;;;;;;22.60;8.35;;;5.90;99.90;;;;;;4998460;28;20049;-73
2023/04/25 01:21:12;;;;;;;21.90;7.47;;;5.90;99.90;;;;;;5001163;28;20491;-73
2023/04/25 01:23:42;;;;;;;23.58;7.13;;;5.90;99.90;;;;;;5015830;28;20492;-73
2023/04/25 01:26:12;;;;;;;18.57;7.23;;;5.90;99.90;;;;;;5003235;28;20037;-73
2023/04/25 01:28:42;;;;;;;19.50;6.75;;;5.90;99.90;;;;;;5019272;28;20071;-73
2023/04/25 01:31:08;;;;;;;23.73;6.82;;;5.80;99.90;;;;;;5005100;28;20523;-73
2023/04/25 01:33:34;;;;;;;20.95;7.10;;;5.80;99.90;;;;;;4987336;28;20599;-73
2023/04/25 01:36:00;;;;;;;20.83;6.72;;;5.90;99.90;;;;;;5000161;28;20129;-74
2023/04/25 01:38:26;;;;;;;16.88;6.25;;;5.80;99.90;;;;;;5003904;28;20454;-73
2023/04/25 01:40:52;;;;;;;23.17;6.43;;;5.80;99.90;;;;;;5000996;28;20353;-73
2023/04/25 01:43:18;;;;;;;23.05;7.43;;;5.80;99.90;;;;;;4987611;28;20676;-73
2023/04/25 01:45:44;;;;;;;28.85;7.15;;;5.80;99.90;;;;;;5001721;28;20049;-73
2023/04/25 01:48:13;;;;;;;23.10;6.93;;;5.80;99.90;;;;;;5003295;28;20065;-72
2023/04/25 01:50:40;;;;;;;23.88;6.80;;;5.90;99.90;;;;;;5016991;28;20041;-73
2023/04/25 01:53:08;;;;;;;25.30;7.40;;;5.90;99.90;;;;;;5009110;28;20049;-73
2023/04/25 01:55:34;;;;;;;19.92;6.70;;;5.90;99.90;;;;;;5025857;28;20687;-73
2023/04/25 01:58:02;;;;;;;21.25;6.53;;;5.90;99.90;;;;;;4962538;28;20057;-73
2023/04/25 02:00:28;;;;;;;22.77;7.28;;;5.90;99.90;;;;;;5001506;28;20107;-73
2023/04/25 02:02:58;;;;;;;21.45;6.60;;;5.90;99.90;;;;;;4979343;28;20309;-73
2023/04/25 02:05:24;;;;;;;;;;;5.90;99.90;;;;;;5009565;28;20057;-73
2023/04/25 02:07:49;;;;;;;24.42;6.03;;;5.90;99.90;;;;;;5008636;28;19982;-75
2023/04/25 02:10:15;;;;;;;18.02;5.60;;;5.90;99.90;;;;;;5004691;28;21952;-75
2023/04/25 02:12:41;;;;;;;22.25;5.57;;;5.90;99.90;;;;;;5010086;28;20045;-74
2023/04/25 02:15:07;;;;;;;21.85;6.45;;;5.90;99.90;;;;;;5007552;28;20664;-75
2023/04/25 02:17:33;;;;;;;23.83;5.60;;;5.90;99.90;;;;;;5010285;28;20049;-74
2023/04/25 02:19:59;;;;;;;20.50;5.57;;;5.90;99.90;;;;;;4991976;28;20701;-75
2023/04/25 02:22:26;;;;;;;22.15;6.50;;;5.90;99.90;;;;;;5009712;28;20049;-75
2023/04/25 02:24:52;;;;;;;20.38;5.00;;;5.90;99.90;;;;;;4990740;28;20400;-74
2023/04/25 02:27:19;;;;;;;18.92;5.75;;;5.90;99.90;;;;;;4992162;28;20069;-75
2023/04/25 02:29:44;;;;;;;20.98;6.72;;;5.90;99.90;;;;;;5009830;28;20179;-75
2023/04/25 02:32:10;;;;;;;20.58;5.22;;;5.90;99.90;;;;;;4989834;28;20037;-75
2023/04/25 02:34:36;;;;;;;16.27;4.50;;;6.00;99.90;;;;;;5008115;28;20123;-75
2023/04/25 02:37:02;;;;;;;21.77;5.70;;;5.90;99.90;;;;;;4987344;28;20049;-74
2023/04/25 02:39:28;;;;;;;19.48;6.10;;;5.90;99.90;;;;;;5009860;28;20052;-75
2023/04/25 02:41:54;;;;;;;20.77;5.60;;;5.90;99.90;;;;;;4989563;28;20080;-75
2023/04/25 02:44:19;;;;;;;19.35;4.43;;;5.90;99.90;;;;;;4991107;28;20583;-75
2023/04/25 02:46:45;;;;;;;17.58;5.03;;;5.90;99.90;;;;;;4993735;28;20041;-75
2023/04/25 02:49:11;;;;;;;16.15;5.25;;;5.90;99.90;;;;;;4974435;28;20041;-74
2023/04/25 02:51:37;;;;;;;17.27;4.40;;;5.90;99.90;;;;;;5009089;28;20058;-75
2023/04/25 02:54:03;;;;;;;19.00;4.47;;;6.00;99.90;;;;;;5006718;28;20049;-74
2023/04/25 02:56:29;;;;;;;17.70;4.57;;;5.90;99.90;;;;;;5009520;28;20056;-75
2023/04/25 02:58:54;;;;;;;15.18;4.18;;;5.90;99.90;;;;;;4991573;28;20049;-75
2023/04/25 03:01:20;;;;;;;22.10;5.15;;;5.80;99.90;;;;;;4992960;28;20124;-75
2023/04/25 03:03:46;;;;;;;18.73;4.22;;;5.80;99.90;;;;;;5007689;28;20172;-75
2023/04/25 03:06:12;;;;;;;15.93;4.45;;;5.80;99.90;;;;;;5007172;28;20037;-75
2023/04/25 03:08:38;;;;;;;13.23;4.32;;;5.80;99.90;;;;;;4992726;28;20059;-75
2023/04/25 03:11:03;;;;;;;16.02;3.58;;;5.80;99.90;;;;;;4975707;28;20664;-75
2023/04/25 03:13:29;;;;;;;16.05;4.40;;;5.80;99.90;;;;;;5007975;28;20045;-73
2023/04/25 03:15:55;;;;;;;13.57;4.00;;;5.80;99.90;;;;;;5007288;28;20049;-77
2023/04/25 03:18:21;;;;;;;17.77;3.95;;;5.80;99.90;;;;;;5008004;28;20064;-77
2023/04/25 03:20:47;;;;;;;16.80;4.18;;;5.80;99.90;;;;;;5004876;28;21462;-77
2023/04/25 03:23:13;;;;;;;13.60;3.60;;;5.80;99.90;;;;;;4973659;28;20045;-75
2023/04/25 03:25:40;;;;;;;16.00;3.85;;;5.80;99.90;;;;;;4975695;28;20123;-75
2023/04/25 03:28:06;;;;;;;18.27;4.53;;;5.80;99.90;;;;;;4991286;28;20561;-75
2023/04/25 03:30:31;;;;;;;13.95;3.42;;;5.80;99.90;;;;;;5008561;28;20049;-75
2023/04/25 03:32:57;;;;;;;14.23;3.55;;;5.80;99.90;;;;;;4990018;28;20067;-76
2023/04/25 03:35:29;;;;;;;12.75;3.63;;;5.70;99.90;;;;;;4990430;28;20258;-76
2023/04/25 03:37:55;;;;;;;11.13;2.63;;;5.60;99.90;;;;;;4990000;28;20080;-75
2023/04/25 03:40:21;;;;;;;10.98;2.70;;;5.60;99.90;;;;;;5008956;28;20049;-75
2023/04/25 03:42:47;;;;;;;9.02;2.60;;;5.60;99.90;;;;;;4962477;28;20633;-75
2023/04/25 03:45:12;;;;;;;10.40;2.38;;;5.50;99.90;;;;;;4974954;28;20096;-75
2023/04/25 03:47:38;;;;;;;12.88;2.53;;;5.50;99.90;;;;;;5006984;28;20144;-77
2023/04/25 03:50:05;;;;;;;15.55;2.80;;;5.40;99.90;;;;;;5010232;28;20053;-75
2023/04/25 03:52:30;;;;;;;12.02;2.60;;;5.40;99.90;;;;;;4990047;28;20041;-76
2023/04/25 03:54:56;;;;;;;9.02;2.13;;;5.30;99.90;;;;;;5007784;28;20171;-75
2023/04/25 03:57:22;;;;;;;9.18;2.65;;;5.30;99.90;;;;;;5004384;28;20041;-75
2023/04/25 03:59:48;;;;;;;12.75;2.80;;;5.30;99.90;;;;;;5007381;28;20057;-77
2023/04/25 04:02:14;;;;;;;7.43;2.28;;;5.20;99.90;;;;;;5002555;28;20061;-76
2023/04/25 04:04:40;;;;;;;10.13;2.22;;;5.20;99.90;;;;;;4986667;28;20444;-75
2023/04/25 04:07:06;;;;;;;10.38;2.20;;;5.20;99.90;;;;;;4985450;28;20052;-76
2023/04/25 04:09:32;;;;;;;9.70;2.47;;;5.20;99.90;;;;;;5006308;28;20049;-77
2023/04/25 04:11:58;;;;;;;11.88;2.58;;;5.20;99.90;;;;;;4989970;28;20076;-77
2023/04/25 04:14:24;;;;;;;9.13;2.75;;;5.20;99.90;;;;;;4990270;28;20060;-77
2023/04/25 04:16:51;;;;;;;6.95;2.03;;;5.20;99.90;;;;;;5008604;28;20050;-78
2023/04/25 04:19:17;;;;;;;6.68;2.10;;;5.20;99.90;;;;;;4977389;28;20048;-77
2023/04/25 04:21:43;;;;;;;9.23;2.65;;;5.20;99.90;;;;;;5008170;28;20045;-78
2023/04/25 04:24:10;;;;;;;6.85;2.17;;;5.10;99.90;;;;;;5009933;28;20045;-75
2023/04/25 04:26:36;;;;;;;10.15;2.85;;;5.10;99.90;;;;;;5009233;28;20041;-75
2023/04/25 04:29:02;;;;;;;15.15;3.03;;;5.10;99.90;;;;;;4995493;28;20049;-75
2023/04/25 04:31:29;;;;;;;10.80;2.25;;;5.10;99.90;;;;;;4990252;28;20053;-75
2023/04/25 04:33:55;;;;;;;14.07;3.38;;;5.10;99.90;;;;;;4995139;28;20064;-75
2023/04/25 04:36:22;;;;;;;9.25;2.25;;;5.10;99.90;;;;;;5008739;28;20042;-76
2023/04/25 04:38:52;;;;;;;10.23;2.80;;;5.10;99.90;;;;;;5025714;28;20049;-76
2023/04/25 04:41:19;;;;;;;14.00;2.58;;;5.20;99.90;;;;;;5023925;28;20381;-74
2023/04/25 04:43:45;;;;;;;8.88;2.65;;;5.20;99.90;;;;;;4993583;28;20049;-75
2023/04/25 04:46:12;;;;;;;7.43;2.67;;;5.20;99.90;;;;;;4993219;28;20095;-74
2023/04/25 04:48:39;;;;;;;8.65;2.58;;;5.20;99.90;;;;;;4992753;28;20088;-74
2023/04/25 04:51:06;;;;;;;11.73;2.72;;;5.10;99.90;;;;;;5011011;28;20068;-74
2023/04/25 04:53:32;;;;;;;7.45;2.33;;;5.20;99.90;;;;;;4993169;28;20053;-75
2023/04/25 04:55:58;;;;;;;10.32;2.10;;;5.20;99.90;;;;;;5011187;28;20057;-76
2023/04/25 04:58:29;;;;;;;9.43;2.38;;;5.20;99.90;;;;;;4990564;28;21150;-75
2023/04/25 05:00:55;;;;;;;11.25;3.13;;;5.20;99.90;;;;;;4977677;28;20196;-76
2023/04/25 05:03:20;;;;;;;9.15;2.50;;;5.20;99.90;;;;;;4993380;28;20041;-75
2023/04/25 05:05:46;;;;;;;10.23;2.28;;;5.20;99.90;;;;;;4994564;28;20075;-75
2023/04/25 05:08:12;;;;;;;11.63;2.90;;;5.20;99.90;;;;;;4973766;28;20067;-75
2023/04/25 05:10:38;;;;;;;8.77;2.47;;;5.20;99.90;;;;;;4993039;28;20041;-74
2023/04/25 05:13:03;;;;;;;8.82;2.80;;;5.20;99.90;;;;;;5008142;28;20307;-74
2023/04/25 05:15:29;;;;;;;12.18;3.15;;;5.20;99.90;;;;;;4978581;28;20057;-74
2023/04/25 05:17:55;;;;;;;12.68;3.28;;;5.20;99.90;;;;;;4992161;28;20076;-75
2023/04/25 05:20:21;;;;;;;13.00;3.45;;;5.20;99.90;;;;;;5008683;28;20049;-74
2023/04/25 05:22:47;;;;;;;9.68;3.00;;;5.20;99.90;;;;;;4974937;28;20178;-74
2023/04/25 05:25:12;;;;;;;11.68;2.70;;;5.20;99.90;;;;;;4992458;28;20053;-74
2023/04/25 05:27:38;;;;;;;11.07;2.78;;;5.20;99.90;;;;;;5007636;28;20446;-74
2023/04/25 05:30:05;;;;;;;9.05;2.60;;;5.30;99.90;;;;;;4995188;28;20063;-76
2023/04/25 05:32:31;;;;;;;13.00;3.53;;;5.30;99.90;;;;;;5010313;28;20057;-76
2023/04/25 05:34:56;;;;;;;13.75;3.35;;;5.40;99.90;;;;;;4977494;28;20061;-75
2023/04/25 05:37:22;;;;;;;12.10;3.60;;;5.40;99.90;;;;;;4988516;28;20051;-74
2023/04/25 05:39:48;;;;;;;10.98;2.95;;;5.50;99.90;;;;;;4978917;28;20663;-75
2023/04/25 05:42:14;;;;;;;14.23;3.63;;;5.60;99.90;;;;;;4991680;28;20126;-75
2023/04/25 05:44:40;;;;;;;11.85;3.22;;;5.70;99.90;;;;;;5010063;28;20106;-75
2023/04/25 05:47:07;;;;;;;11.98;3.10;;;5.70;99.90;;;;;;4991653;28;20049;-74
2023/04/25 05:49:34;;;;;;;11.95;3.20;;;5.80;99.90;;;;;;5020110;28;20053;-75
2023/04/25 05:52:00;;;;;;;11.98;3.33;;;5.80;99.90;;;;;;4968336;28;20703;-74
2023/04/25 05:54:26;;;;;;;13.23;3.10;;;5.80;99.90;;;;;;4993618;28;20056;-74
2023/04/25 05:56:51;;;;;;;13.00;3.35;;;5.90;99.90;;;;;;5011112;28;20052;-75
2023/04/25 05:59:17;;;;;;;10.32;2.90;;;5.90;99.90;;;;;;4993211;28;20080;-75
2023/04/25 06:01:43;;;;;;;10.88;3.45;;;6.00;99.90;;;;;;4993046;28;20048;-74
2023/04/25 06:04:09;;;;;;;16.33;3.78;;;6.00;99.90;;;;;;5011119;28;20053;-74
2023/04/25 06:06:34;;;;;;;13.90;3.90;;;6.00;99.90;;;;;;5009910;28;20037;-74
2023/04/25 06:09:00;;;;;;;13.45;3.72;;;6.10;99.90;;;;;;5007673;28;20053;-74
2023/04/25 06:11:26;;;;;;;11.48;2.90;;;6.10;99.90;;;;;;4992388;28;21229;-75
2023/04/25 06:13:52;;;;;;;9.45;2.65;;;6.20;99.90;;;;;;4991300;28;20115;-74
2023/04/25 06:16:17;;;;;;;13.30;3.30;;;6.20;99.90;;;;;;4992190;28;20151;-74
2023/04/25 06:18:43;;;;;;;12.95;3.55;;;6.20;99.90;;;;;;5007989;28;20575;-74
2023/04/25 06:21:09;;;;;;;11.52;3.15;;;6.30;99.90;;;;;;4971907;28;20067;-75
2023/04/25 06:23:35;;;;;;;12.23;3.13;;;6.30;99.90;;;;;;5007788;28;20041;-75
2023/04/25 06:26:01;;;;;;;12.77;3.47;;;6.40;99.90;;;;;;4990963;28;20473;-74
2023/04/25 06:28:26;;;;;;;12.02;3.00;;;6.40;99.90;;;;;;5009255;28;20045;-75
2023/04/25 06:30:52;;;;;;;14.88;3.42;;;6.40;99.90;;;;;;5007249;28;20049;-74
2023/04/25 06:33:18;;;;;;;12.65;3.45;;;6.40;99.90;;;;;;4990340;28;20501;-75
2023/04/25 06:35:44;;;;;;;11.25;2.60;;;6.40;99.90;;;;;;5002293;28;20227;-74
2023/04/25 06:38:10;;;;;;;14.40;3.20;;;6.60;99.90;;;;;;5006209;28;20060;-75
2023/04/25 06:40:35;;;;;;;13.20;3.15;;;6.70;99.90;;;;;;5008685;28;20103;-75
2023/04/25 06:43:01;;;;;;;10.52;3.17;;;6.80;99.90;;;;;;4991025;28;20061;-75
2023/04/25 06:45:27;;;;;;;14.35;3.45;;;7.00;99.90;;;;;;5006184;28;20048;-74
2023/04/25 06:47:56;;;;;;;11.20;2.70;;;7.10;99.90;;;;;;4991133;28;20120;-74
2023/04/25 06:50:22;;;;;;;10.18;2.42;;;7.20;99.90;;;;;;4989272;28;20053;-74
2023/04/25 06:52:47;;;;;;;6.50;2.33;;;7.10;99.90;;;;;;5009067;28;20084;-74
2023/04/25 06:55:13;;;;;;;12.18;2.97;;;6.90;99.90;;;;;;5006704;28;20503;-74
2023/04/25 06:57:39;;;;;;;9.43;2.50;;;6.60;99.90;;;;;;5009688;28;20674;-73
2023/04/25 07:00:08;;;;;;;11.05;2.92;;;6.50;99.90;;;;;;4992960;28;20519;-74
2023/04/25 07:02:34;;;;;;;8.55;2.72;;;6.50;99.90;;;;;;5025886;28;20107;-73
2023/04/25 07:05:00;;;;;;;10.05;2.53;;;6.50;99.90;;;;;;4991538;28;20337;-74
2023/04/25 07:07:26;;;;;;;10.95;2.67;;;6.70;99.90;;;;;;4993842;28;20709;-73
2023/04/25 07:09:52;;;;;;;10.10;2.55;;;6.90;99.90;;;;;;5021275;28;20101;-75
2023/04/25 07:12:18;;;;;;;9.40;2.17;;;7.10;99.90;;;;;;4994198;28;20136;-75
2023/04/25 07:14:43;;;;;;;12.65;3.92;;;7.30;99.90;;;;;;4993042;28;21824;-74
2023/04/25 07:17:09;;;;;;;10.27;2.58;;;7.40;99.90;;;;;;5004330;28;20046;-76
2023/04/25 07:19:37;;;;;;;8.57;2.15;;;7.40;99.90;;;;;;5006955;28;20052;-75
2023/04/25 07:22:02;;;;;;;13.07;2.33;;;7.50;99.90;;;;;;4993488;28;20400;-75
2023/04/25 07:24:28;;;;;;;9.93;2.20;;;7.50;99.90;;;;;;4993416;28;20052;-75
2023/04/25 07:26:54;;;;;;;8.88;2.30;;;7.50;99.90;;;;;;4981551;28;20052;-75
2023/04/25 07:29:20;;;;;;;10.50;2.10;;;7.50;99.90;;;;;;5009530;28;20053;-75
2023/04/25 07:31:46;;;;;;;8.98;2.22;;;7.50;99.90;;;;;;4992230;28;20049;-75
2023/04/25 07:34:15;;;;;;;8.05;2.05;;;7.50;99.90;;;;;;4992355;28;20140;-77
2023/04/25 07:36:41;;;;;;;8.60;2.10;;;7.60;99.90;;;;;;4990963;28;20115;-74
2023/04/25 07:39:08;;;;;;;8.25;2.05;;;7.60;99.90;;;;;;4974084;28;20049;-73
2023/04/25 07:41:34;;;;;;;12.05;2.40;;;7.50;99.90;;;;;;4990263;28;20124;-74
2023/04/25 07:44:00;;;;;;;10.85;2.50;;;7.60;99.90;;;;;;5005946;28;20108;-74
2023/04/25 07:46:26;;;;;;;9.50;2.80;;;7.70;99.90;;;;;;5006846;28;20053;-74
2023/04/25 07:48:52;;;;;;;8.48;2.42;;;7.90;99.90;;;;;;4973906;28;20057;-74
2023/04/25 07:51:19;;;;;;;8.70;2.47;;;8.10;99.90;;;;;;4994681;28;20049;-75
2023/04/25 07:53:46;;;;;;;11.27;2.40;;;8.20;99.90;;;;;;5010548;28;20707;-75
2023/04/25 07:56:12;;;;;;;10.15;2.17;;;8.30;99.90;;;;;;4996973;28;20145;-76
2023/04/25 07:58:38;;;;;;;8.40;2.28;;;8.50;99.90;;;;;;5011401;28;20046;-77
2023/04/25 08:01:04;;;;;;;10.63;2.17;;;8.50;99.90;;;;;;4993958;28;20049;-76
2023/04/25 08:03:30;;;;;;;9.60;2.30;;;8.30;99.90;;;;;;5009902;28;20046;-76
2023/04/25 08:05:55;;;;;;;8.45;1.83;;;8.00;99.90;;;;;;5025923;28;20048;-75
2023/04/25 08:08:21;;;;;;;6.57;1.52;;;7.70;99.90;;;;;;5010672;28;20068;-76
2023/04/25 08:10:48;;;;;;;7.68;1.65;;;7.40;99.90;;;;;;4989958;28;20111;-75
2023/04/25 08:13:17;;;;;;;7.90;2.20;;;7.10;99.90;;;;;;5010860;28;20052;-75
2023/04/25 08:15:42;;;;;;;9.50;2.13;;;7.00;99.90;;;;;;5009735;28;20049;-75
2023/04/25 08:18:08;;;;;;;11.18;2.60;;;7.00;99.90;;;;;;4993522;28;20523;-75
2023/04/25 08:20:34;;;;;;;8.85;2.20;;;7.20;99.90;;;;;;4992333;28;20068;-74
2023/04/25 08:22:59;;;;;;;8.73;2.22;;;7.50;99.90;;;;;;5010918;28;20053;-75
2023/04/25 08:25:25;;;;;;;9.32;1.70;;;7.80;99.90;;;;;;4976114;28;20148;-75
2023/04/25 08:27:51;;;;;;;10.00;2.22;;;8.10;99.90;;;;;;4993551;28;20080;-75
2023/04/25 08:30:17;;;;;;;6.90;1.55;;;8.30;99.90;;;;;;5009002;28;20068;-76
2023/04/25 08:32:43;;;;;;;8.98;2.28;;;8.50;99.90;;;;;;5008007;28;20069;-75
2023/04/25 08:35:09;;;;;;;8.10;2.20;;;8.50;99.90;;;;;;4990326;28;20591;-76
2023/04/25 08:37:36;;;;;;;10.90;2.28;;;8.60;99.90;;;;;;5006547;28;20450;-75
2023/04/25 08:40:06;;;;;;;7.35;1.75;;;8.70;99.90;;;;;;4975423;28;20041;-75
2023/04/25 08:42:36;;;;;;;6.72;1.80;;;8.90;99.90;;;;;;4995482;28;20429;-76
2023/04/25 08:45:03;;;;;;;7.13;1.35;;;9.00;99.90;;;;;;5008061;28;20055;-75
2023/04/25 08:47:32;;;;;;;8.23;1.88;;;9.20;99.90;;;;;;5006686;28;21180;-75
2023/04/25 08:50:01;;;;;;;7.70;1.50;;;9.30;99.90;;;;;;4990501;28;20065;-74
2023/04/25 08:52:30;;;;;;;6.03;1.60;;;9.30;99.90;;;;;;4982634;28;20819;-74
2023/04/25 08:54:57;;;;;;;9.63;2.08;;;9.10;99.90;;;;;;5009643;28;20061;-74
2023/04/25 08:57:27;;;;;;;7.45;1.80;;;9.00;99.90;;;;;;5011092;28;20118;-74
2023/04/25 08:59:56;;;;;;;10.35;2.30;;;9.00;99.90;;;;;;5026736;28;20152;-75
2023/04/25 09:02:24;;;;;;;7.40;1.90;;;9.00;99.90;;;;;;5025756;28;20054;-76
2023/04/25 09:04:50;;;;;;;10.32;4.15;;;9.10;99.90;;;;;;5011668;28;20144;-76
2023/04/25 09:07:18;;;;;;;8.73;2.47;;;9.20;99.90;;;;;;5010958;28;20042;-75
2023/04/25 09:09:44;;;;;;;6.07;1.63;;;9.30;99.20;;;;;;5010062;28;20045;-76
2023/04/25 09:12:10;;;;;;;6.45;1.55;;;9.00;99.80;;;;;;5012168;28;20130;-75
2023/04/25 09:14:36;;;;;;;5.15;1.48;;;8.60;99.90;;;;;;4993147;28;20045;-74
2023/04/25 09:17:04;;;;;;;6.03;1.55;;;7.90;99.90;;;;;;5012702;28;20523;-75
2023/04/25 09:19:35;;;;;;;6.97;1.90;;;7.50;99.90;;;;;;5012206;28;20443;-74
2023/04/25 09:22:03;;;;;;;5.55;1.40;;;7.20;99.90;;;;;;5009752;28;20875;-75
2023/04/25 09:25:01;;;;;;;5.63;1.48;;;6.90;99.90;;;;;;4993845;28;20126;-74
2023/04/25 09:27:27;;;;;;;6.35;1.55;;;6.80;99.90;;;;;;4976503;28;21173;-75
2023/04/25 09:30:01;;;;;;;6.32;1.63;;;6.70;99.90;;;;;;5012226;28;20159;-75
2023/04/25 09:32:27;;;;;;;5.03;1.45;;;6.80;99.90;;;;;;4992641;28;20072;-75
2023/04/25 09:34:56;;;;;;;7.28;1.45;;;7.00;99.90;;;;;;4994652;28;20057;-75
2023/04/25 09:37:29;;;;;;;5.75;1.48;;;7.20;99.90;;;;;;5011495;28;20140;-75
2023/04/25 09:40:02;;;;;;;9.00;2.22;;;7.40;99.90;;;;;;4999491;28;20547;-75
2023/04/25 09:42:31;;;;;;;6.30;1.40;;;7.80;99.90;;;;;;5009196;28;20072;-75
2023/04/25 09:44:57;;;;;;;6.93;1.55;;;8.10;99.90;;;;;;5009126;28;20532;-76
2023/04/25 09:47:26;;;;;;;7.00;1.80;;;8.40;99.90;;;;;;4993431;28;20123;-75
2023/04/25 09:49:53;;;;;;;6.88;1.92;;;8.70;99.90;;;;;;5006682;28;20057;-75
2023/04/25 09:52:21;;;;;;;9.98;2.47;;;8.90;99.90;;;;;;5011730;28;20499;-75
2023/04/25 09:54:52;;;;;;;5.78;1.90;;;9.00;99.90;;;;;;5012163;28;20313;-75
2023/04/25 09:57:26;;;;;;;11.20;3.00;;;9.00;99.90;;;;;;4995466;28;20052;-75
2023/04/25 09:59:53;;;;;;;5.03;1.58;;;9.10;99.90;;;;;;5021702;28;20144;-75
2023/04/25 10:02:25;;;;;;;5.47;1.20;;;8.90;99.90;;;;;;5024650;28;21144;-75
2023/04/25 10:04:58;;;;;;;4.93;1.20;;;8.60;99.90;;;;;;5006626;28;21859;-74
2023/04/25 10:07:33;;;;;;;3.85;1.20;;;8.30;99.90;;;;;;5006245;28;20119;-75
2023/04/25 10:10:02;;;;;;;6.38;1.70;;;8.00;99.90;;;;;;5007699;28;20527;-75
2023/04/25 10:12:32;;;;;;;7.68;2.47;;;7.80;99.90;;;;;;5005889;28;20041;-74
2023/04/25 10:14:58;;;;;;;8.55;1.88;;;7.80;99.90;;;;;;5024024;28;20389;-73
2023/04/25 10:17:26;;;;;;;8.43;2.30;;;7.90;99.90;;;;;;5006994;28;20080;-74
2023/04/25 10:19:53;;;;;;;6.25;1.73;;;8.00;99.90;;;;;;4993205;28;20287;-74
2023/04/25 10:22:44;;;;;;;9.75;2.05;;;8.30;99.90;;;;;;5008392;28;20053;-73
2023/04/25 10:25:11;;;;;;;9.55;2.15;;;8.80;99.90;;;;;;5010297;28;20504;-74
2023/04/25 10:27:37;;;;;;;9.10;2.08;;;9.10;99.90;;;;;;5007760;28;20132;-73
2023/04/25 10:30:11;;;;;;;8.63;2.00;;;9.60;99.90;;;;;;5011360;28;20468;-73
2023/04/25 10:32:37;;;;;;;9.43;2.05;;;9.80;99.90;;;;;;5018782;28;20081;-73
2023/04/25 10:35:16;;;;;;;8.45;2.20;;;10.00;99.90;;;;;;4990758;28;20331;-75
2023/04/25 10:37:58;;;;;;;6.25;1.77;;;10.10;99.90;;;;;;5010110;28;20063;-74
2023/04/25 10:40:24;;;;;;;10.50;2.10;;;10.10;99.90;;;;;;5007161;28;20073;-73
2023/04/25 10:42:53;;;;;;;6.15;1.40;;;10.00;99.90;;;;;;4963829;28;20091;-73
2023/04/25 10:45:20;;;;;;;9.10;2.25;;;10.00;99.90;;;;;;5011330;28;20551;-74
2023/04/25 10:47:46;;;;;;;9.52;2.00;;;10.00;98.80;;;;;;5007988;28;20463;-74
2023/04/25 10:50:18;;;;;;;5.97;2.03;;;10.00;99.00;;;;;;5008321;28;20049;-74
2023/04/25 10:52:46;;;;;;;10.00;2.20;;;10.00;98.80;;;;;;5005807;28;20130;-76
2023/04/25 10:55:12;;;;;;;6.32;2.13;;;10.10;97.70;;;;;;4981893;28;20140;-74
2023/04/25 10:57:43;;;;;;;6.70;2.00;;;10.20;98.20;;;;;;4992163;28;20050;-74
2023/04/25 11:00:17;;;;;;;7.43;2.03;;;10.30;99.90;;;;;;5007522;28;20049;-75
2023/04/25 11:02:48;;;;;;;6.63;1.70;;;10.40;99.90;;;;;;5008639;28;20053;-74
2023/04/25 11:05:35;;;;;;;5.45;1.52;;;10.30;99.70;;;;;;5006999;28;20613;-75
2023/04/25 11:08:03;;;;;;;5.88;1.60;;;9.90;97.40;;;;;;5021385;28;20127;-74
2023/04/25 11:10:35;;;;;;;5.72;1.25;;;9.60;97.40;;;;;;5009228;28;20067;-73
2023/04/25 11:13:01;;;;;;;4.10;1.63;;;9.30;96.30;;;;;;5006270;28;20587;-74
2023/04/25 11:15:27;;;;;;;4.63;1.30;;;9.00;97.00;;;;;;5006477;28;20133;-74
2023/04/25 11:17:54;;;;;;;5.90;1.88;;;9.00;99.90;;;;;;5005760;28;20033;-75
2023/04/25 11:20:20;;;;;;;5.57;1.30;;;9.20;99.80;;;;;;5009103;28;20052;-77
2023/04/25 11:22:47;;;;;;;6.45;2.65;;;9.30;98.50;;;;;;4988196;28;20076;-75
2023/04/25 11:25:15;;;;;;;7.20;2.97;;;9.30;97.40;;;;;;4993135;28;20060;-74
2023/04/25 11:27:51;;;;;;;6.75;2.20;;;9.30;97.10;;;;;;5010797;28;20072;-74
2023/04/25 11:30:18;;;;;;;7.63;3.30;;;9.30;98.00;;;;;;4997797;28;20049;-74
2023/04/25 11:32:43;;;;;;;5.57;1.95;;;9.20;97.70;;;;;;5009303;28;20156;-74
2023/04/25 11:35:10;;;;;;;8.40;3.63;;;9.20;97.60;;;;;;4995156;28;20063;-74
2023/04/25 11:37:40;;;;;;;7.88;2.90;;;9.20;97.60;;;;;;4994953;28;20085;-74
2023/04/25 11:40:08;;;;;;;8.50;2.53;;;9.20;97.40;;;;;;5026251;28;20052;-74
2023/04/25 11:42:36;;;;;;;7.22;2.00;;;9.10;97.60;;;;;;4994110;28;20630;-74
2023/04/25 11:45:03;;;;;;;8.13;1.70;;;9.10;98.60;;;;;;5005172;28;20045;-74
2023/04/25 11:47:31;;;;;;;11.93;2.47;;;9.30;98.50;;;;;;5006427;28;20092;-74
2023/04/25 11:50:03;;;;;;;11.05;2.35;;;9.60;98.70;;;;;;4994073;28;20380;-74
2023/04/25 11:52:39;;;;;;;8.57;2.10;;;9.90;99.10;;;;;;5010842;28;20455;-73
2023/04/25 11:55:12;;;;;;;9.80;2.15;;;10.20;99.40;;;;;;5008859;28;20061;-74
2023/04/25 11:57:40;;;;;;;8.45;2.33;;;10.20;97.20;;;;;;5011977;28;20197;-74
2023/04/25 12:00:13;;;;;;;7.57;1.60;;;10.00;97.80;;;;;;5012757;28;20059;-74
2023/04/25 12:02:54;;;;;;;6.00;1.48;;;9.80;97.30;;;;;;5029310;28;20045;-74
2023/04/25 12:05:26;;;;;;;6.30;1.52;;;9.60;98.70;;;;;;4990988;28;20048;-76
2023/04/25 12:07:51;;;;;;;5.45;1.77;;;9.50;98.60;;;;;;4994909;28;20037;-74
2023/04/25 12:10:18;;;;;;;5.38;1.25;;;9.40;97.10;;;;;;4979492;28;20064;-73
2023/04/25 12:12:46;;;;;;;7.38;1.80;;;9.50;98.20;;;;;;4994450;28;20049;-75
2023/04/25 12:15:23;;;;;;;9.48;1.67;;;9.70;99.10;;;;;;4976580;28;20053;-73
2023/04/25 12:17:51;;;;;;;7.45;1.83;;;9.80;98.50;;;;;;4995108;28;20490;-74
2023/04/25 12:20:20;;;;;;;10.00;2.60;;;9.70;98.10;;;;;;5013133;28;20403;-73
2023/04/25 12:22:48;;;;;;;10.45;1.88;;;9.50;98.30;;;;;;5010263;28;20095;-76
2023/04/25 12:25:41;;;;;;;7.63;1.73;;;9.40;99.30;;;;;;5010558;28;20139;-74
2023/04/25 12:28:16;;;;;;;8.93;1.92;;;9.50;99.90;;;;;;5009404;28;20056;-74
2023/04/25 12:31:04;;;;;;;9.65;2.22;;;9.50;98.30;;;;;;5009252;28;21620;-74
2023/04/25 12:33:35;;;;;;;7.90;2.22;;;9.40;99.90;;;;;;5011594;28;20253;-74
2023/04/25 12:36:10;;;;;;;7.95;1.90;;;9.20;99.90;;;;;;4993466;28;20071;-74
2023/04/25 12:38:41;;;;;;;6.95;1.83;;;8.90;99.90;;;;;;4996013;28;20090;-74
2023/04/25 12:41:08;;;;;;;5.82;1.48;;;8.70;99.90;;;;;;5017002;28;20126;-74
2023/04/25 12:43:34;;;;;;;5.93;1.95;;;8.50;99.90;;;;;;5000531;28;20344;-75
2023/04/25 12:46:00;;;;;;;7.13;2.08;;;8.50;99.90;;;;;;5006108;28;20241;-74
2023/04/25 12:48:26;;;;;;;6.35;1.80;;;8.60;99.90;;;;;;5018821;28;20052;-74
2023/04/25 12:50:52;;;;;;;6.00;2.15;;;8.90;99.90;;;;;;5012515;28;20053;-74